Date,TemperatureHighF,TemperatureAvgF,TemperatureLowF,DewpointHighF,DewpointAvgF,DewpointLowF,HumidityHigh,HumidityAvg,HumidityLow,PressureMaxIn,PressureMinIn,WindSpeedMaxMPH,WindSpeedAvgMPH,GustSpeedMaxMPH,PrecipitationSumIn
2013-1-1,53.4,43.1,34.5,30.9,27.6,23.9,66,55,38,30.18,29.95,0,0,0,0.00
2013-1-2,58.8,45.8,34.5,31.9,28.0,23.6,65,51,35,30.05,29.80,0,0,0,0.00
2013-1-3,60.0,47.9,37.2,33.7,29.0,24.9,61,49,35,30.05,29.85,0,0,0,0.00
2013-1-4,60.0,49.5,41.3,33.9,29.3,25.6,55,46,36,30.18,30.00,0,0,0,0.00
2013-1-5,60.6,47.6,36.6,31.8,27.7,23.7,60,47,26,30.26,30.03,0,0,0,0.00
2013-1-6,63.8,51.4,41.1,31.0,25.6,20.9,45,37,25,30.12,29.76,0,0,0,0.00
2013-1-7,56.8,47.3,39.0,30.8,27.2,23.8,55,46,37,29.86,29.66,0,0,0,0.00
2013-1-8,61.5,48.8,38.3,34.5,27.8,23.7,56,45,33,30.00,29.80,0,0,0,0.00
2013-1-9,70.5,54.4,41.5,30.9,26.3,22.9,49,35,22,30.12,29.83,0,0,0,0.00
2013-1-10,66.0,56.6,47.4,37.7,26.4,21.3,43,31,24,29.92,29.61,0,0,0,0.00
2013-1-11,53.4,46.1,39.9,32.0,24.8,14.7,65,44,28,30.00,29.80,0,0,0,0.00
2013-1-12,48.5,40.4,32.5,21.0,16.2,12.4,51,38,26,30.06,29.90,0,0,0,0.00
2013-1-13,49.8,38.4,28.7,18.0,13.5,10.5,48,36,24,30.10,29.87,0,0,0,0.00
2013-1-14,46.4,37.4,29.6,16.8,11.3,5.1,45,34,24,30.19,29.97,0,0,0,0.00
2013-1-15,50.7,37.0,26.2,14.2,8.8,5.1,42,31,22,30.36,30.14,0,0,0,0.00
2013-1-16,58.8,43.0,29.3,19.4,12.8,6.5,39,29,21,30.33,30.04,0,0,0,0.00
2013-1-17,55.9,41.6,35.9,34.1,16.6,14.0,46,36,28,30.18,30.05,0,0,0,0.00
2013-1-18,73.7,58.0,45.8,33.2,26.6,19.0,45,31,19,30.11,29.87,0,0,0,0.00
2013-1-19,72.6,55.2,41.5,32.7,25.3,19.0,45,32,22,30.17,29.89,0,0,0,0.00
2013-1-20,75.0,58.2,44.0,37.1,28.6,22.4,44,33,24,30.07,29.79,0,0,0,0.00
2013-1-21,76.6,60.8,47.3,39.8,32.0,26.5,46,35,25,29.99,29.78,0,0,0,0.00
2013-1-22,79.5,63.5,49.4,40.8,34.9,28.7,54,36,23,30.07,29.84,0,0,0,0.00
2013-1-23,79.3,63.6,49.6,41.4,34.3,27.4,46,34,25,30.11,29.86,0,0,0,0.00
2013-1-24,66.7,62.5,60.6,47.4,41.2,33.3,59,46,33,30.10,30.00,0,0,0,0.00
2013-1-25,76.2,65.8,56.8,49.7,46.9,43.0,61,51,38,30.06,29.78,0,0,0,0.00
2013-1-26,70.7,64.9,61.5,54.1,50.6,47.3,70,60,48,29.85,29.73,0,0,0,0.00
2013-1-27,69.6,63.1,58.6,51.8,48.8,46.0,67,60,49,29.89,29.75,0,0,0,0.00
2013-1-28,66.0,56.2,48.7,49.8,40.1,31.7,63,55,46,29.91,29.77,0,0,0,0.00
2013-1-29,56.6,48.1,41.1,38.4,28.2,23.8,62,47,31,30.11,29.91,0,0,0,0.00
2013-1-30,60.0,47.8,37.4,29.9,26.7,23.9,59,45,30,30.26,30.06,0,0,0,0.00
2013-1-31,58.8,49.0,39.5,34.8,29.3,24.3,56,47,36,30.18,29.95,0,0,0,0.00